sensor_id;sensor_type;location;lat;lon;timestamp;P1;durP1;ratioP1;P2;durP2;ratioP2
54835;SDS011;43486;43.574;1.476;2023-03-31T00:01:35;8.02;;;2.65;;
54835;SDS011;43486;43.574;1.476;2023-03-31T00:04:00;5.80;;;2.85;;
54835;SDS011;43486;43.574;1.476;2023-03-31T00:06:28;5.40;;;2.22;;
54835;SDS011;43486;43.574;1.476;2023-03-31T00:08:54;5.63;;;3.20;;
54835;SDS011;43486;43.574;1.476;2023-03-31T00:11:25;9.05;;;2.53;;
54835;SDS011;43486;43.574;1.476;2023-03-31T00:13:51;4.32;;;2.25;;
54835;SDS011;43486;43.574;1.476;2023-03-31T00:16:16;5.00;;;2.25;;
54835;SDS011;43486;43.574;1.476;2023-03-31T00:18:42;5.80;;;2.55;;
54835;SDS011;43486;43.574;1.476;2023-03-31T00:21:16;5.50;;;2.15;;
54835;SDS011;43486;43.574;1.476;2023-03-31T00:24:01;6.38;;;2.38;;
54835;SDS011;43486;43.574;1.476;2023-03-31T00:26:28;4.22;;;2.67;;
54835;SDS011;43486;43.574;1.476;2023-03-31T00:28:53;7.05;;;2.30;;
54835;SDS011;43486;43.574;1.476;2023-03-31T00:31:19;5.18;;;2.25;;
54835;SDS011;43486;43.574;1.476;2023-03-31T00:33:46;6.47;;;3.47;;
54835;SDS011;43486;43.574;1.476;2023-03-31T00:36:11;3.13;;;1.85;;
54835;SDS011;43486;43.574;1.476;2023-03-31T00:38:37;10.63;;;3.13;;
54835;SDS011;43486;43.574;1.476;2023-03-31T00:41:03;5.60;;;2.50;;
54835;SDS011;43486;43.574;1.476;2023-03-31T00:43:34;4.65;;;2.03;;
54835;SDS011;43486;43.574;1.476;2023-03-31T00:48:52;4.15;;;2.03;;
54835;SDS011;43486;43.574;1.476;2023-03-31T00:51:21;6.03;;;2.70;;
54835;SDS011;43486;43.574;1.476;2023-03-31T00:53:50;4.70;;;1.92;;
54835;SDS011;43486;43.574;1.476;2023-03-31T00:56:21;5.30;;;2.23;;
54835;SDS011;43486;43.574;1.476;2023-03-31T00:58:47;4.10;;;1.80;;
54835;SDS011;43486;43.574;1.476;2023-03-31T01:01:15;5.90;;;3.00;;
54835;SDS011;43486;43.574;1.476;2023-03-31T01:03:43;8.15;;;2.25;;
54835;SDS011;43486;43.574;1.476;2023-03-31T01:06:10;5.70;;;2.40;;
54835;SDS011;43486;43.574;1.476;2023-03-31T01:08:38;3.80;;;1.80;;
54835;SDS011;43486;43.574;1.476;2023-03-31T01:11:05;6.70;;;2.08;;
54835;SDS011;43486;43.574;1.476;2023-03-31T01:13:33;3.35;;;1.83;;
54835;SDS011;43486;43.574;1.476;2023-03-31T01:16:00;5.13;;;2.00;;
54835;SDS011;43486;43.574;1.476;2023-03-31T01:18:26;8.32;;;4.07;;
54835;SDS011;43486;43.574;1.476;2023-03-31T01:41:49;6.22;;;2.70;;
54835;SDS011;43486;43.574;1.476;2023-03-31T01:44:36;8.23;;;2.53;;
54835;SDS011;43486;43.574;1.476;2023-03-31T01:55:00;6.30;;;2.20;;
54835;SDS011;43486;43.574;1.476;2023-03-31T01:57:34;6.00;;;2.47;;
54835;SDS011;43486;43.574;1.476;2023-03-31T02:03:04;5.65;;;2.90;;
54835;SDS011;43486;43.574;1.476;2023-03-31T02:05:37;4.15;;;2.05;;
54835;SDS011;43486;43.574;1.476;2023-03-31T02:08:08;5.70;;;2.20;;
54835;SDS011;43486;43.574;1.476;2023-03-31T02:10:34;12.00;;;2.55;;
54835;SDS011;43486;43.574;1.476;2023-03-31T02:13:00;5.60;;;2.15;;
54835;SDS011;43486;43.574;1.476;2023-03-31T02:15:27;4.68;;;1.85;;
54835;SDS011;43486;43.574;1.476;2023-03-31T02:17:56;5.15;;;2.63;;
54835;SDS011;43486;43.574;1.476;2023-03-31T02:20:23;6.18;;;2.20;;
54835;SDS011;43486;43.574;1.476;2023-03-31T02:22:52;5.22;;;2.63;;
54835;SDS011;43486;43.574;1.476;2023-03-31T02:25:20;4.30;;;2.13;;
54835;SDS011;43486;43.574;1.476;2023-03-31T02:27:48;15.25;;;2.25;;
54835;SDS011;43486;43.574;1.476;2023-03-31T02:30:17;4.25;;;2.13;;
54835;SDS011;43486;43.574;1.476;2023-03-31T02:32:43;6.88;;;3.00;;
54835;SDS011;43486;43.574;1.476;2023-03-31T02:35:17;7.95;;;2.15;;
54835;SDS011;43486;43.574;1.476;2023-03-31T02:40:11;4.68;;;2.08;;
54835;SDS011;43486;43.574;1.476;2023-03-31T02:42:41;4.82;;;1.95;;
54835;SDS011;43486;43.574;1.476;2023-03-31T02:47:57;9.07;;;2.55;;
54835;SDS011;43486;43.574;1.476;2023-03-31T02:50:23;5.75;;;2.22;;
54835;SDS011;43486;43.574;1.476;2023-03-31T02:52:58;3.92;;;1.73;;
54835;SDS011;43486;43.574;1.476;2023-03-31T02:55:49;3.78;;;1.80;;
54835;SDS011;43486;43.574;1.476;2023-03-31T02:58:25;4.55;;;1.80;;
54835;SDS011;43486;43.574;1.476;2023-03-31T03:04:12;4.75;;;2.28;;
54835;SDS011;43486;43.574;1.476;2023-03-31T03:12:48;5.07;;;2.03;;
54835;SDS011;43486;43.574;1.476;2023-03-31T03:17:54;3.28;;;1.58;;
54835;SDS011;43486;43.574;1.476;2023-03-31T03:20:20;3.65;;;1.88;;
54835;SDS011;43486;43.574;1.476;2023-03-31T03:22:46;3.75;;;1.80;;
54835;SDS011;43486;43.574;1.476;2023-03-31T03:25:12;3.00;;;1.75;;
54835;SDS011;43486;43.574;1.476;2023-03-31T03:27:38;4.10;;;2.05;;
54835;SDS011;43486;43.574;1.476;2023-03-31T03:30:05;3.53;;;1.52;;
54835;SDS011;43486;43.574;1.476;2023-03-31T03:32:33;3.05;;;1.75;;
54835;SDS011;43486;43.574;1.476;2023-03-31T03:35:01;4.63;;;1.92;;
54835;SDS011;43486;43.574;1.476;2023-03-31T03:37:27;7.45;;;2.92;;
54835;SDS011;43486;43.574;1.476;2023-03-31T03:39:53;4.38;;;2.30;;
54835;SDS011;43486;43.574;1.476;2023-03-31T03:42:18;7.78;;;2.40;;
54835;SDS011;43486;43.574;1.476;2023-03-31T03:44:44;11.48;;;3.10;;
54835;SDS011;43486;43.574;1.476;2023-03-31T03:47:09;4.35;;;1.95;;
54835;SDS011;43486;43.574;1.476;2023-03-31T03:49:35;6.03;;;2.13;;
54835;SDS011;43486;43.574;1.476;2023-03-31T03:52:00;6.38;;;2.17;;
54835;SDS011;43486;43.574;1.476;2023-03-31T03:54:26;10.18;;;2.20;;
54835;SDS011;43486;43.574;1.476;2023-03-31T03:56:51;9.32;;;2.45;;
54835;SDS011;43486;43.574;1.476;2023-03-31T03:59:17;2.92;;;1.55;;
54835;SDS011;43486;43.574;1.476;2023-03-31T04:01:42;4.30;;;1.95;;
54835;SDS011;43486;43.574;1.476;2023-03-31T04:04:07;4.07;;;2.35;;
54835;SDS011;43486;43.574;1.476;2023-03-31T04:06:33;5.13;;;3.33;;
54835;SDS011;43486;43.574;1.476;2023-03-31T04:08:59;3.55;;;2.20;;
54835;SDS011;43486;43.574;1.476;2023-03-31T04:11:24;3.78;;;1.70;;
54835;SDS011;43486;43.574;1.476;2023-03-31T04:13:50;5.25;;;2.08;;
54835;SDS011;43486;43.574;1.476;2023-03-31T04:16:15;3.85;;;1.92;;
54835;SDS011;43486;43.574;1.476;2023-03-31T04:18:41;6.03;;;1.85;;
54835;SDS011;43486;43.574;1.476;2023-03-31T04:21:13;3.35;;;1.70;;
54835;SDS011;43486;43.574;1.476;2023-03-31T04:23:47;4.60;;;2.28;;
54835;SDS011;43486;43.574;1.476;2023-03-31T04:26:14;5.45;;;1.95;;
54835;SDS011;43486;43.574;1.476;2023-03-31T04:28:40;6.53;;;2.17;;
54835;SDS011;43486;43.574;1.476;2023-03-31T04:31:14;3.50;;;2.20;;
54835;SDS011;43486;43.574;1.476;2023-03-31T04:33:49;3.47;;;2.17;;
54835;SDS011;43486;43.574;1.476;2023-03-31T04:36:17;7.57;;;1.83;;
54835;SDS011;43486;43.574;1.476;2023-03-31T04:38:47;4.43;;;2.10;;
54835;SDS011;43486;43.574;1.476;2023-03-31T04:41:19;7.60;;;2.28;;
54835;SDS011;43486;43.574;1.476;2023-03-31T04:43:45;6.35;;;2.10;;
54835;SDS011;43486;43.574;1.476;2023-03-31T04:46:10;7.63;;;2.70;;
54835;SDS011;43486;43.574;1.476;2023-03-31T04:48:36;5.40;;;2.83;;
54835;SDS011;43486;43.574;1.476;2023-03-31T04:51:01;2.85;;;1.50;;
54835;SDS011;43486;43.574;1.476;2023-03-31T04:53:27;3.38;;;1.98;;
54835;SDS011;43486;43.574;1.476;2023-03-31T04:55:53;5.05;;;1.90;;
54835;SDS011;43486;43.574;1.476;2023-03-31T04:58:18;3.65;;;1.80;;
54835;SDS011;43486;43.574;1.476;2023-03-31T05:00:44;2.63;;;1.55;;
54835;SDS011;43486;43.574;1.476;2023-03-31T05:03:09;3.83;;;1.92;;
54835;SDS011;43486;43.574;1.476;2023-03-31T05:05:35;2.47;;;1.48;;
54835;SDS011;43486;43.574;1.476;2023-03-31T05:08:01;10.35;;;2.70;;
54835;SDS011;43486;43.574;1.476;2023-03-31T05:10:27;6.80;;;2.13;;
54835;SDS011;43486;43.574;1.476;2023-03-31T05:12:53;6.95;;;2.03;;
54835;SDS011;43486;43.574;1.476;2023-03-31T05:15:19;2.47;;;1.42;;
54835;SDS011;43486;43.574;1.476;2023-03-31T05:17:44;4.10;;;2.28;;
54835;SDS011;43486;43.574;1.476;2023-03-31T05:20:10;6.00;;;2.47;;
54835;SDS011;43486;43.574;1.476;2023-03-31T05:22:37;4.03;;;1.80;;
54835;SDS011;43486;43.574;1.476;2023-03-31T05:25:04;9.07;;;3.05;;
54835;SDS011;43486;43.574;1.476;2023-03-31T05:27:31;9.20;;;2.28;;
54835;SDS011;43486;43.574;1.476;2023-03-31T05:29:57;3.40;;;1.65;;
54835;SDS011;43486;43.574;1.476;2023-03-31T05:32:23;3.60;;;1.90;;
54835;SDS011;43486;43.574;1.476;2023-03-31T05:34:50;3.92;;;1.98;;
54835;SDS011;43486;43.574;1.476;2023-03-31T05:37:17;6.47;;;2.60;;
54835;SDS011;43486;43.574;1.476;2023-03-31T05:39:43;4.85;;;1.73;;
54835;SDS011;43486;43.574;1.476;2023-03-31T05:42:09;4.07;;;2.17;;
54835;SDS011;43486;43.574;1.476;2023-03-31T05:44:34;7.95;;;2.40;;
54835;SDS011;43486;43.574;1.476;2023-03-31T05:47:00;4.60;;;2.22;;
54835;SDS011;43486;43.574;1.476;2023-03-31T05:49:25;9.77;;;2.22;;
54835;SDS011;43486;43.574;1.476;2023-03-31T05:51:51;3.72;;;1.85;;
54835;SDS011;43486;43.574;1.476;2023-03-31T05:54:17;4.88;;;1.70;;
54835;SDS011;43486;43.574;1.476;2023-03-31T05:56:42;5.43;;;2.45;;
54835;SDS011;43486;43.574;1.476;2023-03-31T05:59:08;6.35;;;1.77;;
54835;SDS011;43486;43.574;1.476;2023-03-31T06:01:33;7.88;;;2.25;;
54835;SDS011;43486;43.574;1.476;2023-03-31T06:03:59;13.00;;;2.03;;
54835;SDS011;43486;43.574;1.476;2023-03-31T06:06:24;6.25;;;2.10;;
54835;SDS011;43486;43.574;1.476;2023-03-31T06:08:50;3.67;;;2.22;;
54835;SDS011;43486;43.574;1.476;2023-03-31T06:11:17;4.60;;;1.63;;
54835;SDS011;43486;43.574;1.476;2023-03-31T06:13:43;6.53;;;2.20;;
54835;SDS011;43486;43.574;1.476;2023-03-31T06:16:10;4.80;;;2.47;;
54835;SDS011;43486;43.574;1.476;2023-03-31T06:18:36;6.20;;;2.20;;
54835;SDS011;43486;43.574;1.476;2023-03-31T06:21:02;9.25;;;3.13;;
54835;SDS011;43486;43.574;1.476;2023-03-31T06:23:28;10.48;;;2.40;;
54835;SDS011;43486;43.574;1.476;2023-03-31T06:25:53;4.03;;;2.28;;
54835;SDS011;43486;43.574;1.476;2023-03-31T06:28:19;5.03;;;2.25;;
54835;SDS011;43486;43.574;1.476;2023-03-31T06:30:45;4.47;;;2.13;;
54835;SDS011;43486;43.574;1.476;2023-03-31T06:33:10;5.53;;;2.53;;
54835;SDS011;43486;43.574;1.476;2023-03-31T06:35:37;5.10;;;3.08;;
54835;SDS011;43486;43.574;1.476;2023-03-31T06:38:03;7.32;;;2.90;;
54835;SDS011;43486;43.574;1.476;2023-03-31T06:40:29;7.18;;;2.15;;
54835;SDS011;43486;43.574;1.476;2023-03-31T06:42:54;7.45;;;2.30;;
54835;SDS011;43486;43.574;1.476;2023-03-31T06:45:20;9.82;;;2.58;;
54835;SDS011;43486;43.574;1.476;2023-03-31T06:47:45;3.95;;;2.60;;
54835;SDS011;43486;43.574;1.476;2023-03-31T06:50:10;6.22;;;3.08;;
54835;SDS011;43486;43.574;1.476;2023-03-31T06:52:36;6.22;;;2.40;;
54835;SDS011;43486;43.574;1.476;2023-03-31T06:55:02;7.35;;;2.63;;
54835;SDS011;43486;43.574;1.476;2023-03-31T06:57:28;7.18;;;2.85;;
54835;SDS011;43486;43.574;1.476;2023-03-31T06:59:53;4.65;;;2.33;;
54835;SDS011;43486;43.574;1.476;2023-03-31T07:02:19;5.35;;;2.63;;
54835;SDS011;43486;43.574;1.476;2023-03-31T07:04:44;7.63;;;3.08;;
54835;SDS011;43486;43.574;1.476;2023-03-31T07:07:10;4.53;;;2.38;;
54835;SDS011;43486;43.574;1.476;2023-03-31T07:09:35;9.77;;;2.75;;
54835;SDS011;43486;43.574;1.476;2023-03-31T07:12:01;7.35;;;3.22;;
54835;SDS011;43486;43.574;1.476;2023-03-31T07:14:29;9.10;;;3.08;;
54835;SDS011;43486;43.574;1.476;2023-03-31T07:16:55;6.47;;;2.22;;
54835;SDS011;43486;43.574;1.476;2023-03-31T07:19:20;8.57;;;3.15;;
54835;SDS011;43486;43.574;1.476;2023-03-31T07:21:45;9.05;;;2.70;;
54835;SDS011;43486;43.574;1.476;2023-03-31T07:24:11;8.02;;;2.33;;
54835;SDS011;43486;43.574;1.476;2023-03-31T07:26:36;5.85;;;2.35;;
54835;SDS011;43486;43.574;1.476;2023-03-31T07:29:02;5.53;;;2.75;;
54835;SDS011;43486;43.574;1.476;2023-03-31T07:31:27;6.35;;;2.72;;
54835;SDS011;43486;43.574;1.476;2023-03-31T07:33:53;7.60;;;3.00;;
54835;SDS011;43486;43.574;1.476;2023-03-31T07:36:18;7.85;;;2.42;;
54835;SDS011;43486;43.574;1.476;2023-03-31T07:38:44;5.93;;;2.53;;
54835;SDS011;43486;43.574;1.476;2023-03-31T07:41:14;7.90;;;3.00;;
54835;SDS011;43486;43.574;1.476;2023-03-31T07:43:41;5.70;;;2.47;;
54835;SDS011;43486;43.574;1.476;2023-03-31T07:46:12;8.43;;;3.88;;
54835;SDS011;43486;43.574;1.476;2023-03-31T07:48:42;9.45;;;3.63;;
54835;SDS011;43486;43.574;1.476;2023-03-31T07:51:08;7.05;;;2.72;;
54835;SDS011;43486;43.574;1.476;2023-03-31T07:53:33;9.18;;;3.25;;
54835;SDS011;43486;43.574;1.476;2023-03-31T07:55:59;5.97;;;2.85;;
54835;SDS011;43486;43.574;1.476;2023-03-31T07:58:25;6.95;;;2.65;;
54835;SDS011;43486;43.574;1.476;2023-03-31T08:00:51;5.03;;;2.20;;
54835;SDS011;43486;43.574;1.476;2023-03-31T08:03:16;9.88;;;3.67;;
54835;SDS011;43486;43.574;1.476;2023-03-31T08:05:41;6.13;;;2.63;;
54835;SDS011;43486;43.574;1.476;2023-03-31T08:08:07;10.15;;;3.38;;
54835;SDS011;43486;43.574;1.476;2023-03-31T08:10:32;8.95;;;3.53;;
54835;SDS011;43486;43.574;1.476;2023-03-31T08:12:57;8.95;;;3.17;;
54835;SDS011;43486;43.574;1.476;2023-03-31T08:15:23;8.45;;;3.55;;
54835;SDS011;43486;43.574;1.476;2023-03-31T08:17:48;13.10;;;2.97;;
54835;SDS011;43486;43.574;1.476;2023-03-31T08:20:14;7.93;;;3.05;;
54835;SDS011;43486;43.574;1.476;2023-03-31T08:22:40;7.95;;;2.78;;
54835;SDS011;43486;43.574;1.476;2023-03-31T08:25:05;7.20;;;3.10;;
54835;SDS011;43486;43.574;1.476;2023-03-31T08:27:35;6.28;;;2.97;;
54835;SDS011;43486;43.574;1.476;2023-03-31T08:30:02;10.68;;;3.60;;
54835;SDS011;43486;43.574;1.476;2023-03-31T08:32:30;9.50;;;2.85;;
54835;SDS011;43486;43.574;1.476;2023-03-31T08:34:56;7.55;;;3.10;;
54835;SDS011;43486;43.574;1.476;2023-03-31T08:37:21;7.57;;;3.42;;
54835;SDS011;43486;43.574;1.476;2023-03-31T08:39:47;14.05;;;4.30;;
54835;SDS011;43486;43.574;1.476;2023-03-31T08:42:14;7.93;;;3.13;;
54835;SDS011;43486;43.574;1.476;2023-03-31T08:47:22;6.10;;;2.63;;
54835;SDS011;43486;43.574;1.476;2023-03-31T08:49:50;10.38;;;3.70;;
54835;SDS011;43486;43.574;1.476;2023-03-31T08:52:18;6.15;;;3.25;;
54835;SDS011;43486;43.574;1.476;2023-03-31T08:54:51;6.18;;;2.67;;
54835;SDS011;43486;43.574;1.476;2023-03-31T08:57:24;8.10;;;3.55;;
54835;SDS011;43486;43.574;1.476;2023-03-31T08:59:52;6.55;;;2.95;;
54835;SDS011;43486;43.574;1.476;2023-03-31T09:13:09;8.07;;;4.18;;
54835;SDS011;43486;43.574;1.476;2023-03-31T09:16:01;6.63;;;3.03;;
54835;SDS011;43486;43.574;1.476;2023-03-31T09:18:36;9.07;;;3.30;;
54835;SDS011;43486;43.574;1.476;2023-03-31T09:21:13;11.57;;;3.13;;
54835;SDS011;43486;43.574;1.476;2023-03-31T09:26:33;8.98;;;3.85;;
54835;SDS011;43486;43.574;1.476;2023-03-31T09:28:59;12.73;;;3.05;;
54835;SDS011;43486;43.574;1.476;2023-03-31T09:31:26;10.75;;;3.50;;
54835;SDS011;43486;43.574;1.476;2023-03-31T09:33:54;13.60;;;3.90;;
54835;SDS011;43486;43.574;1.476;2023-03-31T09:36:24;15.43;;;3.65;;
54835;SDS011;43486;43.574;1.476;2023-03-31T09:38:49;10.68;;;3.67;;
54835;SDS011;43486;43.574;1.476;2023-03-31T09:41:15;14.02;;;3.80;;
54835;SDS011;43486;43.574;1.476;2023-03-31T09:43:42;7.95;;;3.33;;
54835;SDS011;43486;43.574;1.476;2023-03-31T09:48:59;9.00;;;4.22;;
54835;SDS011;43486;43.574;1.476;2023-03-31T09:51:31;8.57;;;3.25;;
54835;SDS011;43486;43.574;1.476;2023-03-31T09:59:15;11.75;;;4.35;;
54835;SDS011;43486;43.574;1.476;2023-03-31T10:01:46;8.13;;;3.67;;
54835;SDS011;43486;43.574;1.476;2023-03-31T10:04:23;7.97;;;4.68;;
54835;SDS011;43486;43.574;1.476;2023-03-31T10:06:50;11.90;;;4.68;;
54835;SDS011;43486;43.574;1.476;2023-03-31T10:09:18;11.80;;;3.83;;
54835;SDS011;43486;43.574;1.476;2023-03-31T10:12:05;11.05;;;5.03;;
54835;SDS011;43486;43.574;1.476;2023-03-31T10:14:54;8.98;;;3.90;;
54835;SDS011;43486;43.574;1.476;2023-03-31T10:17:22;12.27;;;3.40;;
54835;SDS011;43486;43.574;1.476;2023-03-31T10:19:50;10.57;;;4.10;;
54835;SDS011;43486;43.574;1.476;2023-03-31T10:24:48;11.82;;;3.53;;
54835;SDS011;43486;43.574;1.476;2023-03-31T10:29:46;12.50;;;3.95;;
54835;SDS011;43486;43.574;1.476;2023-03-31T10:34:47;7.97;;;4.05;;
54835;SDS011;43486;43.574;1.476;2023-03-31T10:37:13;15.07;;;4.85;;
54835;SDS011;43486;43.574;1.476;2023-03-31T10:39:41;15.95;;;4.18;;
54835;SDS011;43486;43.574;1.476;2023-03-31T10:42:07;12.75;;;4.32;;
54835;SDS011;43486;43.574;1.476;2023-03-31T10:44:36;12.82;;;5.25;;
54835;SDS011;43486;43.574;1.476;2023-03-31T10:47:04;17.67;;;4.32;;
54835;SDS011;43486;43.574;1.476;2023-03-31T10:49:37;19.52;;;4.35;;
54835;SDS011;43486;43.574;1.476;2023-03-31T10:52:10;10.07;;;4.25;;
54835;SDS011;43486;43.574;1.476;2023-03-31T10:54:48;19.73;;;3.95;;
54835;SDS011;43486;43.574;1.476;2023-03-31T10:57:16;12.20;;;4.55;;
54835;SDS011;43486;43.574;1.476;2023-03-31T11:08:24;12.07;;;4.53;;
54835;SDS011;43486;43.574;1.476;2023-03-31T11:13:54;10.65;;;3.35;;
54835;SDS011;43486;43.574;1.476;2023-03-31T11:18:56;11.30;;;4.07;;
54835;SDS011;43486;43.574;1.476;2023-03-31T11:35:45;12.93;;;4.38;;
54835;SDS011;43486;43.574;1.476;2023-03-31T11:43:04;9.88;;;4.50;;
54835;SDS011;43486;43.574;1.476;2023-03-31T11:45:43;16.45;;;4.88;;
54835;SDS011;43486;43.574;1.476;2023-03-31T11:48:20;16.23;;;4.93;;
54835;SDS011;43486;43.574;1.476;2023-03-31T11:51:02;16.58;;;4.10;;
54835;SDS011;43486;43.574;1.476;2023-03-31T11:53:31;16.48;;;5.15;;
54835;SDS011;43486;43.574;1.476;2023-03-31T11:55:58;18.15;;;6.45;;
54835;SDS011;43486;43.574;1.476;2023-03-31T11:58:29;10.48;;;5.68;;
54835;SDS011;43486;43.574;1.476;2023-03-31T12:06:30;10.30;;;4.97;;
54835;SDS011;43486;43.574;1.476;2023-03-31T12:16:53;14.75;;;5.38;;
54835;SDS011;43486;43.574;1.476;2023-03-31T12:24:50;21.80;;;5.15;;
54835;SDS011;43486;43.574;1.476;2023-03-31T12:27:17;18.40;;;5.47;;
54835;SDS011;43486;43.574;1.476;2023-03-31T12:32:38;13.38;;;5.35;;
54835;SDS011;43486;43.574;1.476;2023-03-31T12:35:06;13.13;;;5.40;;
54835;SDS011;43486;43.574;1.476;2023-03-31T12:45:53;18.63;;;5.63;;
54835;SDS011;43486;43.574;1.476;2023-03-31T12:48:29;17.63;;;5.18;;
54835;SDS011;43486;43.574;1.476;2023-03-31T12:53:31;12.23;;;5.10;;
54835;SDS011;43486;43.574;1.476;2023-03-31T12:55:59;20.85;;;5.88;;
54835;SDS011;43486;43.574;1.476;2023-03-31T13:06:00;16.08;;;5.45;;
54835;SDS011;43486;43.574;1.476;2023-03-31T13:19:08;11.90;;;5.00;;
54835;SDS011;43486;43.574;1.476;2023-03-31T13:21:52;11.48;;;4.78;;
54835;SDS011;43486;43.574;1.476;2023-03-31T13:24:22;14.32;;;4.72;;
54835;SDS011;43486;43.574;1.476;2023-03-31T13:26:49;10.23;;;4.45;;
54835;SDS011;43486;43.574;1.476;2023-03-31T13:32:25;16.63;;;5.85;;
54835;SDS011;43486;43.574;1.476;2023-03-31T13:48:19;16.48;;;5.00;;
54835;SDS011;43486;43.574;1.476;2023-03-31T14:07:31;13.00;;;6.35;;
54835;SDS011;43486;43.574;1.476;2023-03-31T14:10:01;14.45;;;3.70;;
54835;SDS011;43486;43.574;1.476;2023-03-31T14:12:35;12.15;;;5.60;;
54835;SDS011;43486;43.574;1.476;2023-03-31T14:15:02;15.38;;;4.05;;
54835;SDS011;43486;43.574;1.476;2023-03-31T14:17:29;15.23;;;4.60;;
54835;SDS011;43486;43.574;1.476;2023-03-31T14:35:35;15.32;;;4.97;;
54835;SDS011;43486;43.574;1.476;2023-03-31T14:38:25;8.05;;;4.55;;
54835;SDS011;43486;43.574;1.476;2023-03-31T14:40:52;14.88;;;4.47;;
54835;SDS011;43486;43.574;1.476;2023-03-31T14:43:21;12.15;;;4.25;;
54835;SDS011;43486;43.574;1.476;2023-03-31T14:45:56;7.22;;;3.65;;
54835;SDS011;43486;43.574;1.476;2023-03-31T14:48:26;10.15;;;4.15;;
54835;SDS011;43486;43.574;1.476;2023-03-31T14:50:55;14.13;;;4.72;;
54835;SDS011;43486;43.574;1.476;2023-03-31T14:53:23;13.25;;;3.88;;
54835;SDS011;43486;43.574;1.476;2023-03-31T14:55:49;9.25;;;4.20;;
54835;SDS011;43486;43.574;1.476;2023-03-31T14:59:16;11.57;;;4.70;;
54835;SDS011;43486;43.574;1.476;2023-03-31T15:01:14;17.58;;;5.03;;
54835;SDS011;43486;43.574;1.476;2023-03-31T15:06:12;6.10;;;3.88;;
54835;SDS011;43486;43.574;1.476;2023-03-31T15:08:38;8.30;;;3.83;;
54835;SDS011;43486;43.574;1.476;2023-03-31T15:11:05;10.02;;;3.40;;
54835;SDS011;43486;43.574;1.476;2023-03-31T15:13:43;13.65;;;4.60;;
54835;SDS011;43486;43.574;1.476;2023-03-31T15:18:44;15.25;;;4.30;;
54835;SDS011;43486;43.574;1.476;2023-03-31T15:21:18;16.58;;;4.32;;
54835;SDS011;43486;43.574;1.476;2023-03-31T15:23:50;12.60;;;3.75;;
54835;SDS011;43486;43.574;1.476;2023-03-31T15:26:17;7.80;;;3.25;;
54835;SDS011;43486;43.574;1.476;2023-03-31T15:28:56;12.63;;;3.63;;
54835;SDS011;43486;43.574;1.476;2023-03-31T15:31:25;6.72;;;3.38;;
54835;SDS011;43486;43.574;1.476;2023-03-31T15:33:51;11.43;;;3.40;;
54835;SDS011;43486;43.574;1.476;2023-03-31T15:36:17;8.07;;;3.67;;
54835;SDS011;43486;43.574;1.476;2023-03-31T15:38:45;9.15;;;4.50;;
54835;SDS011;43486;43.574;1.476;2023-03-31T15:41:13;11.05;;;4.35;;
54835;SDS011;43486;43.574;1.476;2023-03-31T15:46:08;14.23;;;3.92;;
54835;SDS011;43486;43.574;1.476;2023-03-31T15:48:36;8.45;;;3.17;;
54835;SDS011;43486;43.574;1.476;2023-03-31T15:53:44;10.32;;;3.38;;
54835;SDS011;43486;43.574;1.476;2023-03-31T16:01:49;9.32;;;3.50;;
54835;SDS011;43486;43.574;1.476;2023-03-31T16:06:48;9.70;;;4.05;;
54835;SDS011;43486;43.574;1.476;2023-03-31T16:12:14;16.58;;;3.88;;
54835;SDS011;43486;43.574;1.476;2023-03-31T16:15:02;9.15;;;3.38;;
54835;SDS011;43486;43.574;1.476;2023-03-31T16:20:22;8.88;;;3.13;;
54835;SDS011;43486;43.574;1.476;2023-03-31T16:22:50;12.07;;;3.80;;
54835;SDS011;43486;43.574;1.476;2023-03-31T16:25:18;12.00;;;3.88;;
54835;SDS011;43486;43.574;1.476;2023-03-31T16:27:53;11.05;;;3.60;;
54835;SDS011;43486;43.574;1.476;2023-03-31T16:30:21;7.18;;;3.53;;
54835;SDS011;43486;43.574;1.476;2023-03-31T16:32:58;11.85;;;3.90;;
54835;SDS011;43486;43.574;1.476;2023-03-31T16:35:30;15.30;;;3.63;;
54835;SDS011;43486;43.574;1.476;2023-03-31T16:38:01;13.40;;;4.03;;
54835;SDS011;43486;43.574;1.476;2023-03-31T16:40:28;7.95;;;3.40;;
54835;SDS011;43486;43.574;1.476;2023-03-31T16:45:35;11.45;;;3.67;;
54835;SDS011;43486;43.574;1.476;2023-03-31T16:48:01;15.82;;;4.20;;
54835;SDS011;43486;43.574;1.476;2023-03-31T16:50:26;8.88;;;3.85;;
54835;SDS011;43486;43.574;1.476;2023-03-31T16:52:52;8.48;;;3.25;;
54835;SDS011;43486;43.574;1.476;2023-03-31T16:55:17;15.55;;;3.60;;
54835;SDS011;43486;43.574;1.476;2023-03-31T16:57:42;11.73;;;3.90;;
54835;SDS011;43486;43.574;1.476;2023-03-31T17:00:08;8.20;;;3.50;;
54835;SDS011;43486;43.574;1.476;2023-03-31T17:02:34;9.10;;;3.50;;
54835;SDS011;43486;43.574;1.476;2023-03-31T17:05:00;9.00;;;3.67;;
54835;SDS011;43486;43.574;1.476;2023-03-31T17:07:25;11.20;;;3.03;;
54835;SDS011;43486;43.574;1.476;2023-03-31T17:09:51;10.27;;;3.65;;
54835;SDS011;43486;43.574;1.476;2023-03-31T17:12:16;19.10;;;3.58;;
54835;SDS011;43486;43.574;1.476;2023-03-31T17:14:41;8.80;;;3.53;;
54835;SDS011;43486;43.574;1.476;2023-03-31T17:17:07;6.32;;;2.80;;
54835;SDS011;43486;43.574;1.476;2023-03-31T17:19:32;12.77;;;4.15;;
54835;SDS011;43486;43.574;1.476;2023-03-31T17:21:57;17.05;;;3.20;;
54835;SDS011;43486;43.574;1.476;2023-03-31T17:24:26;6.80;;;3.35;;
54835;SDS011;43486;43.574;1.476;2023-03-31T17:26:51;8.52;;;2.55;;
54835;SDS011;43486;43.574;1.476;2023-03-31T17:29:17;13.57;;;4.63;;
54835;SDS011;43486;43.574;1.476;2023-03-31T17:31:42;16.63;;;5.15;;
54835;SDS011;43486;43.574;1.476;2023-03-31T17:34:08;9.13;;;3.22;;
54835;SDS011;43486;43.574;1.476;2023-03-31T17:36:34;8.93;;;3.88;;
54835;SDS011;43486;43.574;1.476;2023-03-31T17:38:59;12.13;;;3.55;;
54835;SDS011;43486;43.574;1.476;2023-03-31T17:41:26;8.27;;;3.03;;
54835;SDS011;43486;43.574;1.476;2023-03-31T17:43:53;9.82;;;4.15;;
54835;SDS011;43486;43.574;1.476;2023-03-31T17:46:19;8.40;;;2.63;;
54835;SDS011;43486;43.574;1.476;2023-03-31T17:48:44;10.88;;;3.17;;
54835;SDS011;43486;43.574;1.476;2023-03-31T17:51:14;8.70;;;2.90;;
54835;SDS011;43486;43.574;1.476;2023-03-31T17:53:40;11.05;;;3.88;;
54835;SDS011;43486;43.574;1.476;2023-03-31T17:56:06;11.95;;;3.67;;
54835;SDS011;43486;43.574;1.476;2023-03-31T17:58:32;10.50;;;2.95;;
54835;SDS011;43486;43.574;1.476;2023-03-31T18:00:58;11.80;;;3.35;;
54835;SDS011;43486;43.574;1.476;2023-03-31T18:03:23;7.82;;;3.42;;
54835;SDS011;43486;43.574;1.476;2023-03-31T18:05:51;8.68;;;3.65;;
54835;SDS011;43486;43.574;1.476;2023-03-31T18:08:17;5.38;;;2.75;;
54835;SDS011;43486;43.574;1.476;2023-03-31T18:10:42;12.73;;;4.03;;
54835;SDS011;43486;43.574;1.476;2023-03-31T18:13:08;6.55;;;3.15;;
54835;SDS011;43486;43.574;1.476;2023-03-31T18:15:33;17.85;;;4.45;;
54835;SDS011;43486;43.574;1.476;2023-03-31T18:17:59;11.13;;;3.00;;
54835;SDS011;43486;43.574;1.476;2023-03-31T18:20:25;12.93;;;3.55;;
54835;SDS011;43486;43.574;1.476;2023-03-31T18:22:51;9.45;;;3.40;;
54835;SDS011;43486;43.574;1.476;2023-03-31T18:25:16;10.25;;;3.95;;
54835;SDS011;43486;43.574;1.476;2023-03-31T18:27:42;7.22;;;2.80;;
54835;SDS011;43486;43.574;1.476;2023-03-31T18:30:07;9.20;;;3.80;;
54835;SDS011;43486;43.574;1.476;2023-03-31T18:32:33;9.55;;;3.22;;
54835;SDS011;43486;43.574;1.476;2023-03-31T18:34:59;9.98;;;3.45;;
54835;SDS011;43486;43.574;1.476;2023-03-31T18:37:24;7.05;;;2.95;;
54835;SDS011;43486;43.574;1.476;2023-03-31T18:39:51;10.93;;;3.05;;
54835;SDS011;43486;43.574;1.476;2023-03-31T18:42:17;10.75;;;3.65;;
54835;SDS011;43486;43.574;1.476;2023-03-31T18:44:48;8.38;;;3.88;;
54835;SDS011;43486;43.574;1.476;2023-03-31T18:47:14;9.07;;;2.88;;
54835;SDS011;43486;43.574;1.476;2023-03-31T18:49:40;7.55;;;3.10;;
54835;SDS011;43486;43.574;1.476;2023-03-31T18:52:06;10.27;;;3.80;;